sensor_id;sensor_type;location;lat;lon;timestamp;P1;durP1;ratioP1;P2;durP2;ratioP2
68247;SDS011;55064;49.636;12.164;2023-04-24T00:02:02;4.60;;;1.10;;
68247;SDS011;55064;49.636;12.164;2023-04-24T00:04:29;4.95;;;1.27;;
68247;SDS011;55064;49.636;12.164;2023-04-24T00:06:55;4.70;;;1.60;;
68247;SDS011;55064;49.636;12.164;2023-04-24T00:09:22;4.22;;;1.40;;
68247;SDS011;55064;49.636;12.164;2023-04-24T00:11:48;4.07;;;1.00;;
68247;SDS011;55064;49.636;12.164;2023-04-24T00:14:13;4.63;;;1.30;;
68247;SDS011;55064;49.636;12.164;2023-04-24T00:16:38;4.37;;;1.10;;
68247;SDS011;55064;49.636;12.164;2023-04-24T00:19:06;4.93;;;1.50;;
68247;SDS011;55064;49.636;12.164;2023-04-24T00:21:34;4.63;;;1.27;;
68247;SDS011;55064;49.636;12.164;2023-04-24T00:24:00;3.40;;;0.88;;
68247;SDS011;55064;49.636;12.164;2023-04-24T00:26:26;4.20;;;1.10;;
68247;SDS011;55064;49.636;12.164;2023-04-24T00:28:52;4.13;;;1.33;;
68247;SDS011;55064;49.636;12.164;2023-04-24T00:31:18;4.37;;;1.30;;
68247;SDS011;55064;49.636;12.164;2023-04-24T00:33:46;5.65;;;1.38;;
68247;SDS011;55064;49.636;12.164;2023-04-24T00:36:13;3.67;;;1.10;;
68247;SDS011;55064;49.636;12.164;2023-04-24T00:38:39;4.30;;;1.00;;
68247;SDS011;55064;49.636;12.164;2023-04-24T00:41:05;4.40;;;1.30;;
68247;SDS011;55064;49.636;12.164;2023-04-24T00:43:31;4.05;;;1.38;;
68247;SDS011;55064;49.636;12.164;2023-04-24T00:46:04;5.68;;;1.23;;
68247;SDS011;55064;49.636;12.164;2023-04-24T00:48:29;3.57;;;1.30;;
68247;SDS011;55064;49.636;12.164;2023-04-24T00:50:56;4.65;;;1.45;;
68247;SDS011;55064;49.636;12.164;2023-04-24T00:53:28;5.03;;;1.30;;
68247;SDS011;55064;49.636;12.164;2023-04-24T00:55:53;4.05;;;1.33;;
68247;SDS011;55064;49.636;12.164;2023-04-24T00:58:18;4.30;;;1.13;;
68247;SDS011;55064;49.636;12.164;2023-04-24T01:00:45;4.90;;;1.50;;
68247;SDS011;55064;49.636;12.164;2023-04-24T01:03:11;4.82;;;1.70;;
68247;SDS011;55064;49.636;12.164;2023-04-24T01:05:38;5.50;;;1.67;;
68247;SDS011;55064;49.636;12.164;2023-04-24T01:08:03;4.30;;;1.40;;
68247;SDS011;55064;49.636;12.164;2023-04-24T01:10:29;5.50;;;1.47;;
68247;SDS011;55064;49.636;12.164;2023-04-24T01:12:57;5.22;;;1.60;;
68247;SDS011;55064;49.636;12.164;2023-04-24T01:15:23;4.17;;;1.30;;
68247;SDS011;55064;49.636;12.164;2023-04-24T01:17:51;4.70;;;1.53;;
68247;SDS011;55064;49.636;12.164;2023-04-24T01:20:21;5.22;;;1.52;;
68247;SDS011;55064;49.636;12.164;2023-04-24T01:22:50;5.25;;;1.85;;
68247;SDS011;55064;49.636;12.164;2023-04-24T01:25:19;4.83;;;1.70;;
68247;SDS011;55064;49.636;12.164;2023-04-24T01:27:46;7.03;;;1.63;;
68247;SDS011;55064;49.636;12.164;2023-04-24T01:30:14;4.50;;;1.50;;
68247;SDS011;55064;49.636;12.164;2023-04-24T01:32:39;4.63;;;1.60;;
68247;SDS011;55064;49.636;12.164;2023-04-24T01:35:05;5.00;;;2.00;;
68247;SDS011;55064;49.636;12.164;2023-04-24T01:37:31;5.50;;;1.90;;
68247;SDS011;55064;49.636;12.164;2023-04-24T01:39:58;6.18;;;1.98;;
68247;SDS011;55064;49.636;12.164;2023-04-24T01:42:23;4.47;;;1.53;;
68247;SDS011;55064;49.636;12.164;2023-04-24T01:44:54;5.77;;;2.10;;
68247;SDS011;55064;49.636;12.164;2023-04-24T01:47:20;5.40;;;1.70;;
68247;SDS011;55064;49.636;12.164;2023-04-24T01:49:45;6.30;;;1.92;;
68247;SDS011;55064;49.636;12.164;2023-04-24T01:52:12;6.60;;;1.88;;
68247;SDS011;55064;49.636;12.164;2023-04-24T01:54:42;5.83;;;2.10;;
68247;SDS011;55064;49.636;12.164;2023-04-24T01:57:13;5.20;;;2.00;;
68247;SDS011;55064;49.636;12.164;2023-04-24T01:59:39;4.77;;;1.93;;
68247;SDS011;55064;49.636;12.164;2023-04-24T02:02:07;7.20;;;2.00;;
68247;SDS011;55064;49.636;12.164;2023-04-24T02:04:32;6.15;;;1.90;;
68247;SDS011;55064;49.636;12.164;2023-04-24T02:07:03;6.23;;;2.10;;
68247;SDS011;55064;49.636;12.164;2023-04-24T02:09:31;6.37;;;2.10;;
68247;SDS011;55064;49.636;12.164;2023-04-24T02:11:56;5.27;;;2.17;;
68247;SDS011;55064;49.636;12.164;2023-04-24T02:14:24;5.03;;;1.80;;
68247;SDS011;55064;49.636;12.164;2023-04-24T02:16:50;4.93;;;1.70;;
68247;SDS011;55064;49.636;12.164;2023-04-24T02:19:16;5.32;;;1.65;;
68247;SDS011;55064;49.636;12.164;2023-04-24T02:21:41;5.30;;;1.60;;
68247;SDS011;55064;49.636;12.164;2023-04-24T02:24:06;5.47;;;1.77;;
68247;SDS011;55064;49.636;12.164;2023-04-24T02:26:32;5.17;;;1.90;;
68247;SDS011;55064;49.636;12.164;2023-04-24T02:28:57;5.45;;;1.80;;
68247;SDS011;55064;49.636;12.164;2023-04-24T02:31:25;6.73;;;2.23;;
68247;SDS011;55064;49.636;12.164;2023-04-24T02:33:50;7.88;;;2.10;;
68247;SDS011;55064;49.636;12.164;2023-04-24T02:36:16;8.43;;;2.07;;
68247;SDS011;55064;49.636;12.164;2023-04-24T02:38:41;5.60;;;2.20;;
68247;SDS011;55064;49.636;12.164;2023-04-24T02:41:06;7.43;;;2.70;;
68247;SDS011;55064;49.636;12.164;2023-04-24T02:43:32;7.30;;;2.70;;
68247;SDS011;55064;49.636;12.164;2023-04-24T02:45:58;6.73;;;2.53;;
68247;SDS011;55064;49.636;12.164;2023-04-24T02:48:24;7.38;;;2.85;;
68247;SDS011;55064;49.636;12.164;2023-04-24T02:50:49;8.47;;;2.80;;
68247;SDS011;55064;49.636;12.164;2023-04-24T02:53:15;7.05;;;2.83;;
68247;SDS011;55064;49.636;12.164;2023-04-24T02:55:41;6.37;;;2.47;;
68247;SDS011;55064;49.636;12.164;2023-04-24T02:58:06;7.23;;;2.60;;
68247;SDS011;55064;49.636;12.164;2023-04-24T03:00:31;8.47;;;2.93;;
68247;SDS011;55064;49.636;12.164;2023-04-24T03:02:57;7.60;;;2.80;;
68247;SDS011;55064;49.636;12.164;2023-04-24T03:05:23;9.27;;;3.20;;
68247;SDS011;55064;49.636;12.164;2023-04-24T03:07:49;6.97;;;2.73;;
68247;SDS011;55064;49.636;12.164;2023-04-24T03:10:14;7.33;;;3.20;;
68247;SDS011;55064;49.636;12.164;2023-04-24T03:12:40;6.67;;;2.70;;
68247;SDS011;55064;49.636;12.164;2023-04-24T03:15:06;7.67;;;3.00;;
68247;SDS011;55064;49.636;12.164;2023-04-24T03:17:33;7.65;;;3.28;;
68247;SDS011;55064;49.636;12.164;2023-04-24T03:19:59;8.27;;;3.53;;
68247;SDS011;55064;49.636;12.164;2023-04-24T03:22:24;8.77;;;3.38;;
68247;SDS011;55064;49.636;12.164;2023-04-24T03:24:53;7.47;;;2.90;;
68247;SDS011;55064;49.636;12.164;2023-04-24T03:27:19;7.32;;;3.08;;
68247;SDS011;55064;49.636;12.164;2023-04-24T03:29:49;8.03;;;3.67;;
68247;SDS011;55064;49.636;12.164;2023-04-24T03:32:21;6.95;;;3.00;;
68247;SDS011;55064;49.636;12.164;2023-04-24T03:34:47;8.25;;;3.20;;
68247;SDS011;55064;49.636;12.164;2023-04-24T03:37:13;8.83;;;3.47;;
68247;SDS011;55064;49.636;12.164;2023-04-24T03:39:42;8.10;;;3.17;;
68247;SDS011;55064;49.636;12.164;2023-04-24T03:42:10;8.65;;;3.50;;
68247;SDS011;55064;49.636;12.164;2023-04-24T03:44:35;9.43;;;3.87;;
68247;SDS011;55064;49.636;12.164;2023-04-24T03:47:01;8.63;;;3.70;;
68247;SDS011;55064;49.636;12.164;2023-04-24T03:49:26;7.90;;;3.30;;
68247;SDS011;55064;49.636;12.164;2023-04-24T03:51:54;8.05;;;3.58;;
68247;SDS011;55064;49.636;12.164;2023-04-24T03:54:20;10.00;;;3.80;;
68247;SDS011;55064;49.636;12.164;2023-04-24T04:03:16;7.60;;;3.40;;
68247;SDS011;55064;49.636;12.164;2023-04-24T04:09:05;7.80;;;3.50;;
68247;SDS011;55064;49.636;12.164;2023-04-24T04:14:53;8.45;;;3.45;;
68247;SDS011;55064;49.636;12.164;2023-04-24T04:20:40;8.25;;;3.80;;
68247;SDS011;55064;49.636;12.164;2023-04-24T04:32:31;7.95;;;3.58;;
68247;SDS011;55064;49.636;12.164;2023-04-24T04:38:19;7.47;;;2.80;;
68247;SDS011;55064;49.636;12.164;2023-04-24T04:53:34;6.47;;;2.65;;
68247;SDS011;55064;49.636;12.164;2023-04-24T04:59:15;6.23;;;2.53;;
68247;SDS011;55064;49.636;12.164;2023-04-24T05:17:51;10.20;;;5.40;;
68247;SDS011;55064;49.636;12.164;2023-04-24T05:20:24;12.55;;;5.85;;
68247;SDS011;55064;49.636;12.164;2023-04-24T05:23:07;8.73;;;4.17;;
68247;SDS011;55064;49.636;12.164;2023-04-24T05:25:33;14.82;;;6.10;;
68247;SDS011;55064;49.636;12.164;2023-04-24T05:28:00;8.95;;;4.18;;
68247;SDS011;55064;49.636;12.164;2023-04-24T05:30:27;9.00;;;3.27;;
68247;SDS011;55064;49.636;12.164;2023-04-24T05:32:52;7.43;;;3.05;;
68247;SDS011;55064;49.636;12.164;2023-04-24T05:35:20;8.48;;;3.20;;
68247;SDS011;55064;49.636;12.164;2023-04-24T05:37:45;6.90;;;2.60;;
68247;SDS011;55064;49.636;12.164;2023-04-24T05:40:10;6.63;;;2.70;;
68247;SDS011;55064;49.636;12.164;2023-04-24T05:42:36;7.40;;;2.90;;
68247;SDS011;55064;49.636;12.164;2023-04-24T05:45:01;7.73;;;3.60;;
68247;SDS011;55064;49.636;12.164;2023-04-24T05:47:30;10.15;;;3.90;;
68247;SDS011;55064;49.636;12.164;2023-04-24T05:49:57;8.88;;;3.55;;
68247;SDS011;55064;49.636;12.164;2023-04-24T05:52:22;8.37;;;3.63;;
68247;SDS011;55064;49.636;12.164;2023-04-24T05:54:50;9.32;;;3.72;;
68247;SDS011;55064;49.636;12.164;2023-04-24T05:57:17;7.57;;;3.03;;
68247;SDS011;55064;49.636;12.164;2023-04-24T05:59:42;6.70;;;2.67;;
68247;SDS011;55064;49.636;12.164;2023-04-24T06:02:10;7.77;;;3.00;;
68247;SDS011;55064;49.636;12.164;2023-04-24T06:04:36;8.35;;;3.28;;
68247;SDS011;55064;49.636;12.164;2023-04-24T06:07:05;9.17;;;2.77;;
68247;SDS011;55064;49.636;12.164;2023-04-24T06:09:34;7.43;;;2.83;;
68247;SDS011;55064;49.636;12.164;2023-04-24T06:12:00;8.20;;;3.10;;
68247;SDS011;55064;49.636;12.164;2023-04-24T06:14:28;8.00;;;2.97;;
68247;SDS011;55064;49.636;12.164;2023-04-24T06:16:54;9.68;;;3.05;;
68247;SDS011;55064;49.636;12.164;2023-04-24T06:19:19;10.13;;;2.90;;
68247;SDS011;55064;49.636;12.164;2023-04-24T06:21:46;6.88;;;2.88;;
68247;SDS011;55064;49.636;12.164;2023-04-24T06:24:13;6.90;;;2.80;;
68247;SDS011;55064;49.636;12.164;2023-04-24T06:26:40;7.18;;;2.55;;
68247;SDS011;55064;49.636;12.164;2023-04-24T06:29:06;8.82;;;2.70;;
68247;SDS011;55064;49.636;12.164;2023-04-24T06:31:34;6.60;;;2.83;;
68247;SDS011;55064;49.636;12.164;2023-04-24T06:34:03;6.78;;;2.80;;
68247;SDS011;55064;49.636;12.164;2023-04-24T06:36:28;7.67;;;3.40;;
68247;SDS011;55064;49.636;12.164;2023-04-24T06:38:55;8.70;;;2.90;;
68247;SDS011;55064;49.636;12.164;2023-04-24T06:41:22;9.32;;;3.15;;
68247;SDS011;55064;49.636;12.164;2023-04-24T06:43:48;8.25;;;2.58;;
68247;SDS011;55064;49.636;12.164;2023-04-24T06:46:15;9.40;;;3.00;;
68247;SDS011;55064;49.636;12.164;2023-04-24T06:48:41;9.80;;;3.40;;
68247;SDS011;55064;49.636;12.164;2023-04-24T06:51:07;7.23;;;2.80;;
68247;SDS011;55064;49.636;12.164;2023-04-24T06:53:33;8.02;;;2.65;;
68247;SDS011;55064;49.636;12.164;2023-04-24T06:55:58;9.03;;;2.63;;
68247;SDS011;55064;49.636;12.164;2023-04-24T06:58:27;6.07;;;2.50;;
68247;SDS011;55064;49.636;12.164;2023-04-24T07:00:52;6.65;;;2.70;;
68247;SDS011;55064;49.636;12.164;2023-04-24T07:03:18;7.90;;;2.40;;
68247;SDS011;55064;49.636;12.164;2023-04-24T07:05:43;8.50;;;2.70;;
68247;SDS011;55064;49.636;12.164;2023-04-24T07:08:11;8.50;;;2.67;;
68247;SDS011;55064;49.636;12.164;2023-04-24T07:10:36;5.93;;;2.40;;
68247;SDS011;55064;49.636;12.164;2023-04-24T07:13:04;6.75;;;2.20;;
68247;SDS011;55064;49.636;12.164;2023-04-24T07:15:30;5.93;;;1.90;;
68247;SDS011;55064;49.636;12.164;2023-04-24T07:17:57;6.38;;;2.13;;
68247;SDS011;55064;49.636;12.164;2023-04-24T07:20:22;6.00;;;1.93;;
68247;SDS011;55064;49.636;12.164;2023-04-24T07:22:48;5.70;;;2.07;;
68247;SDS011;55064;49.636;12.164;2023-04-24T07:25:14;5.88;;;1.88;;
68247;SDS011;55064;49.636;12.164;2023-04-24T07:27:39;7.30;;;1.98;;
68247;SDS011;55064;49.636;12.164;2023-04-24T07:30:05;6.43;;;1.83;;
68247;SDS011;55064;49.636;12.164;2023-04-24T07:32:34;7.30;;;1.90;;
68247;SDS011;55064;49.636;12.164;2023-04-24T07:35:01;5.07;;;1.80;;
68247;SDS011;55064;49.636;12.164;2023-04-24T07:37:28;4.80;;;1.80;;
68247;SDS011;55064;49.636;12.164;2023-04-24T07:39:55;7.57;;;1.70;;
68247;SDS011;55064;49.636;12.164;2023-04-24T07:42:20;5.20;;;1.60;;
68247;SDS011;55064;49.636;12.164;2023-04-24T07:44:47;4.60;;;1.63;;
68247;SDS011;55064;49.636;12.164;2023-04-24T07:47:13;6.10;;;1.60;;
68247;SDS011;55064;49.636;12.164;2023-04-24T07:49:41;4.85;;;1.65;;
68247;SDS011;55064;49.636;12.164;2023-04-24T07:52:09;4.65;;;1.60;;
68247;SDS011;55064;49.636;12.164;2023-04-24T07:54:36;6.82;;;1.67;;
68247;SDS011;55064;49.636;12.164;2023-04-24T07:57:02;4.43;;;1.40;;
68247;SDS011;55064;49.636;12.164;2023-04-24T07:59:27;4.38;;;1.30;;
68247;SDS011;55064;49.636;12.164;2023-04-24T08:01:55;4.57;;;1.27;;
68247;SDS011;55064;49.636;12.164;2023-04-24T08:04:21;4.60;;;1.25;;
68247;SDS011;55064;49.636;12.164;2023-04-24T08:06:49;5.33;;;1.47;;
68247;SDS011;55064;49.636;12.164;2023-04-24T08:09:17;5.30;;;1.30;;
68247;SDS011;55064;49.636;12.164;2023-04-24T08:11:44;5.45;;;1.20;;
68247;SDS011;55064;49.636;12.164;2023-04-24T08:14:10;3.10;;;0.60;;
68247;SDS011;55064;49.636;12.164;2023-04-24T08:16:38;4.05;;;0.80;;
68247;SDS011;55064;49.636;12.164;2023-04-24T08:19:05;1.93;;;0.40;;
68247;SDS011;55064;49.636;12.164;2023-04-24T08:21:31;2.55;;;0.50;;
68247;SDS011;55064;49.636;12.164;2023-04-24T08:24:07;2.57;;;0.50;;
68247;SDS011;55064;49.636;12.164;2023-04-24T08:29:57;3.08;;;0.90;;
68247;SDS011;55064;49.636;12.164;2023-04-24T08:35:44;5.10;;;1.30;;
68247;SDS011;55064;49.636;12.164;2023-04-24T08:38:11;2.13;;;0.60;;
68247;SDS011;55064;49.636;12.164;2023-04-24T08:40:36;2.45;;;0.70;;
68247;SDS011;55064;49.636;12.164;2023-04-24T08:43:03;4.50;;;0.93;;
68247;SDS011;55064;49.636;12.164;2023-04-24T08:45:28;3.22;;;0.80;;
68247;SDS011;55064;49.636;12.164;2023-04-24T08:47:57;3.88;;;1.00;;
68247;SDS011;55064;49.636;12.164;2023-04-24T08:50:24;3.50;;;1.00;;
68247;SDS011;55064;49.636;12.164;2023-04-24T08:52:50;2.53;;;0.63;;
68247;SDS011;55064;49.636;12.164;2023-04-24T08:55:18;3.58;;;1.00;;
68247;SDS011;55064;49.636;12.164;2023-04-24T08:57:50;3.63;;;1.10;;
68247;SDS011;55064;49.636;12.164;2023-04-24T09:00:19;4.70;;;0.88;;
68247;SDS011;55064;49.636;12.164;2023-04-24T09:02:46;3.67;;;1.00;;
68247;SDS011;55064;49.636;12.164;2023-04-24T09:05:16;4.72;;;1.05;;
68247;SDS011;55064;49.636;12.164;2023-04-24T09:07:44;3.70;;;0.90;;
68247;SDS011;55064;49.636;12.164;2023-04-24T09:10:14;3.97;;;1.00;;
68247;SDS011;55064;49.636;12.164;2023-04-24T09:12:42;4.25;;;1.20;;
68247;SDS011;55064;49.636;12.164;2023-04-24T09:15:09;3.20;;;1.00;;
68247;SDS011;55064;49.636;12.164;2023-04-24T09:17:35;5.35;;;1.20;;
68247;SDS011;55064;49.636;12.164;2023-04-24T09:20:01;4.87;;;1.20;;
68247;SDS011;55064;49.636;12.164;2023-04-24T09:22:31;3.20;;;0.90;;
68247;SDS011;55064;49.636;12.164;2023-04-24T09:25:02;3.95;;;1.00;;
68247;SDS011;55064;49.636;12.164;2023-04-24T09:27:30;3.20;;;0.80;;
68247;SDS011;55064;49.636;12.164;2023-04-24T09:29:56;4.88;;;1.10;;
68247;SDS011;55064;49.636;12.164;2023-04-24T09:32:23;3.27;;;1.00;;
68247;SDS011;55064;49.636;12.164;2023-04-24T09:35:04;4.78;;;1.10;;
68247;SDS011;55064;49.636;12.164;2023-04-24T09:37:36;4.72;;;1.00;;
68247;SDS011;55064;49.636;12.164;2023-04-24T09:45:20;3.77;;;0.90;;
68247;SDS011;55064;49.636;12.164;2023-04-24T09:47:46;4.05;;;0.90;;
68247;SDS011;55064;49.636;12.164;2023-04-24T09:50:21;3.05;;;0.80;;
68247;SDS011;55064;49.636;12.164;2023-04-24T09:52:58;4.20;;;1.10;;
68247;SDS011;55064;49.636;12.164;2023-04-24T09:55:28;3.70;;;0.90;;
68247;SDS011;55064;49.636;12.164;2023-04-24T09:58:00;2.92;;;0.90;;
68247;SDS011;55064;49.636;12.164;2023-04-24T10:00:30;3.60;;;1.10;;
68247;SDS011;55064;49.636;12.164;2023-04-24T10:03:00;3.30;;;1.05;;
68247;SDS011;55064;49.636;12.164;2023-04-24T10:05:28;5.63;;;1.10;;
68247;SDS011;55064;49.636;12.164;2023-04-24T10:07:56;3.83;;;1.10;;
68247;SDS011;55064;49.636;12.164;2023-04-24T10:10:23;4.22;;;1.00;;
68247;SDS011;55064;49.636;12.164;2023-04-24T10:12:48;3.80;;;1.10;;
68247;SDS011;55064;49.636;12.164;2023-04-24T10:15:16;4.07;;;1.30;;
68247;SDS011;55064;49.636;12.164;2023-04-24T10:17:47;4.45;;;1.20;;
68247;SDS011;55064;49.636;12.164;2023-04-24T10:20:17;3.58;;;1.00;;
68247;SDS011;55064;49.636;12.164;2023-04-24T10:22:52;4.38;;;1.27;;
68247;SDS011;55064;49.636;12.164;2023-04-24T10:25:22;4.05;;;1.30;;
68247;SDS011;55064;49.636;12.164;2023-04-24T10:27:51;6.63;;;1.30;;
68247;SDS011;55064;49.636;12.164;2023-04-24T10:30:20;5.30;;;1.10;;
68247;SDS011;55064;49.636;12.164;2023-04-24T10:32:48;4.00;;;1.35;;
68247;SDS011;55064;49.636;12.164;2023-04-24T10:35:14;4.63;;;1.13;;
68247;SDS011;55064;49.636;12.164;2023-04-24T10:37:46;3.67;;;1.20;;
68247;SDS011;55064;49.636;12.164;2023-04-24T10:40:19;4.57;;;1.30;;
68247;SDS011;55064;49.636;12.164;2023-04-24T10:42:51;5.05;;;1.58;;
68247;SDS011;55064;49.636;12.164;2023-04-24T10:45:20;3.90;;;1.07;;
68247;SDS011;55064;49.636;12.164;2023-04-24T10:50:43;4.50;;;1.25;;
68247;SDS011;55064;49.636;12.164;2023-04-24T10:53:16;5.03;;;1.25;;
68247;SDS011;55064;49.636;12.164;2023-04-24T10:58:12;3.67;;;1.17;;
68247;SDS011;55064;49.636;12.164;2023-04-24T11:00:37;3.97;;;1.33;;
68247;SDS011;55064;49.636;12.164;2023-04-24T11:03:04;4.80;;;1.98;;
68247;SDS011;55064;49.636;12.164;2023-04-24T11:08:27;4.07;;;1.30;;
68247;SDS011;55064;49.636;12.164;2023-04-24T11:11:03;4.25;;;1.20;;
68247;SDS011;55064;49.636;12.164;2023-04-24T11:22:17;3.73;;;1.07;;
68247;SDS011;55064;49.636;12.164;2023-04-24T11:27:22;3.55;;;1.25;;
68247;SDS011;55064;49.636;12.164;2023-04-24T11:29:58;5.00;;;1.30;;
68247;SDS011;55064;49.636;12.164;2023-04-24T11:35:03;3.13;;;1.07;;
68247;SDS011;55064;49.636;12.164;2023-04-24T11:37:39;4.03;;;1.20;;
68247;SDS011;55064;49.636;12.164;2023-04-24T11:40:06;3.63;;;1.20;;
68247;SDS011;55064;49.636;12.164;2023-04-24T11:42:37;3.92;;;1.27;;
68247;SDS011;55064;49.636;12.164;2023-04-24T11:45:13;7.00;;;2.08;;
68247;SDS011;55064;49.636;12.164;2023-04-24T11:47:40;3.63;;;1.10;;
68247;SDS011;55064;49.636;12.164;2023-04-24T11:50:07;4.63;;;1.45;;
68247;SDS011;55064;49.636;12.164;2023-04-24T11:52:38;5.03;;;1.45;;
68247;SDS011;55064;49.636;12.164;2023-04-24T11:55:28;4.22;;;1.20;;
68247;SDS011;55064;49.636;12.164;2023-04-24T11:57:57;5.75;;;1.20;;
68247;SDS011;55064;49.636;12.164;2023-04-24T12:03:14;4.07;;;1.13;;
68247;SDS011;55064;49.636;12.164;2023-04-24T12:05:39;4.85;;;1.30;;
68247;SDS011;55064;49.636;12.164;2023-04-24T12:08:09;3.97;;;1.30;;
68247;SDS011;55064;49.636;12.164;2023-04-24T12:10:37;3.15;;;1.10;;
68247;SDS011;55064;49.636;12.164;2023-04-24T12:13:02;3.70;;;1.13;;
68247;SDS011;55064;49.636;12.164;2023-04-24T12:15:28;4.40;;;1.40;;
68247;SDS011;55064;49.636;12.164;2023-04-24T12:17:54;4.03;;;1.50;;
68247;SDS011;55064;49.636;12.164;2023-04-24T12:20:24;3.90;;;1.40;;
68247;SDS011;55064;49.636;12.164;2023-04-24T12:22:55;5.47;;;1.60;;
68247;SDS011;55064;49.636;12.164;2023-04-24T12:25:25;7.25;;;1.50;;
68247;SDS011;55064;49.636;12.164;2023-04-24T12:28:08;4.47;;;1.20;;
68247;SDS011;55064;49.636;12.164;2023-04-24T12:30:41;3.65;;;1.05;;
68247;SDS011;55064;49.636;12.164;2023-04-24T12:33:16;3.58;;;1.15;;
68247;SDS011;55064;49.636;12.164;2023-04-24T12:35:42;3.23;;;1.00;;
68247;SDS011;55064;49.636;12.164;2023-04-24T12:38:08;4.45;;;1.10;;
68247;SDS011;55064;49.636;12.164;2023-04-24T12:40:35;3.40;;;1.10;;
68247;SDS011;55064;49.636;12.164;2023-04-24T12:43:00;2.63;;;0.90;;
68247;SDS011;55064;49.636;12.164;2023-04-24T12:45:37;3.83;;;1.13;;
68247;SDS011;55064;49.636;12.164;2023-04-24T12:48:02;4.50;;;1.17;;
68247;SDS011;55064;49.636;12.164;2023-04-24T12:50:29;3.60;;;1.10;;
68247;SDS011;55064;49.636;12.164;2023-04-24T12:52:54;2.70;;;0.90;;
68247;SDS011;55064;49.636;12.164;2023-04-24T12:55:20;3.70;;;1.00;;
68247;SDS011;55064;49.636;12.164;2023-04-24T12:57:53;3.08;;;1.05;;
68247;SDS011;55064;49.636;12.164;2023-04-24T13:00:20;4.07;;;1.20;;
68247;SDS011;55064;49.636;12.164;2023-04-24T13:02:46;2.97;;;0.90;;
68247;SDS011;55064;49.636;12.164;2023-04-24T13:05:13;3.20;;;0.88;;
68247;SDS011;55064;49.636;12.164;2023-04-24T13:07:41;3.20;;;1.05;;
68247;SDS011;55064;49.636;12.164;2023-04-24T13:10:07;4.20;;;1.00;;
68247;SDS011;55064;49.636;12.164;2023-04-24T13:12:35;4.05;;;1.20;;
68247;SDS011;55064;49.636;12.164;2023-04-24T13:15:03;4.50;;;1.10;;
68247;SDS011;55064;49.636;12.164;2023-04-24T13:17:32;4.35;;;1.40;;
68247;SDS011;55064;49.636;12.164;2023-04-24T13:19:58;5.45;;;1.20;;
68247;SDS011;55064;49.636;12.164;2023-04-24T13:22:23;3.40;;;1.00;;
68247;SDS011;55064;49.636;12.164;2023-04-24T13:24:49;4.20;;;1.00;;
68247;SDS011;55064;49.636;12.164;2023-04-24T13:27:16;3.20;;;0.90;;
68247;SDS011;55064;49.636;12.164;2023-04-24T13:29:44;3.60;;;1.10;;
68247;SDS011;55064;49.636;12.164;2023-04-24T13:32:12;3.90;;;1.02;;
68247;SDS011;55064;49.636;12.164;2023-04-24T13:34:37;4.68;;;1.20;;
68247;SDS011;55064;49.636;12.164;2023-04-24T13:37:03;3.50;;;1.20;;
68247;SDS011;55064;49.636;12.164;2023-04-24T13:39:32;3.50;;;1.20;;
68247;SDS011;55064;49.636;12.164;2023-04-24T13:42:00;4.03;;;1.23;;
68247;SDS011;55064;49.636;12.164;2023-04-24T13:44:25;4.10;;;1.27;;
68247;SDS011;55064;49.636;12.164;2023-04-24T13:46:53;5.38;;;1.30;;
68247;SDS011;55064;49.636;12.164;2023-04-24T13:49:22;6.43;;;1.70;;
68247;SDS011;55064;49.636;12.164;2023-04-24T13:51:49;4.17;;;1.40;;
68247;SDS011;55064;49.636;12.164;2023-04-24T13:54:15;3.97;;;1.40;;
68247;SDS011;55064;49.636;12.164;2023-04-24T13:56:41;6.20;;;1.40;;
68247;SDS011;55064;49.636;12.164;2023-04-24T13:59:13;4.77;;;1.70;;
68247;SDS011;55064;49.636;12.164;2023-04-24T14:01:38;4.03;;;1.50;;
68247;SDS011;55064;49.636;12.164;2023-04-24T14:04:03;5.45;;;1.30;;
68247;SDS011;55064;49.636;12.164;2023-04-24T14:06:31;3.70;;;1.20;;
68247;SDS011;55064;49.636;12.164;2023-04-24T14:08:59;6.35;;;1.60;;
68247;SDS011;55064;49.636;12.164;2023-04-24T14:11:25;4.73;;;1.40;;
68247;SDS011;55064;49.636;12.164;2023-04-24T14:13:51;4.43;;;1.30;;
68247;SDS011;55064;49.636;12.164;2023-04-24T14:16:16;4.67;;;1.40;;
68247;SDS011;55064;49.636;12.164;2023-04-24T14:18:42;3.30;;;1.10;;
68247;SDS011;55064;49.636;12.164;2023-04-24T14:21:07;3.77;;;1.30;;
68247;SDS011;55064;49.636;12.164;2023-04-24T14:23:33;4.87;;;1.30;;
68247;SDS011;55064;49.636;12.164;2023-04-24T14:25:58;4.60;;;1.40;;
68247;SDS011;55064;49.636;12.164;2023-04-24T14:28:30;4.03;;;1.20;;
68247;SDS011;55064;49.636;12.164;2023-04-24T14:30:56;4.75;;;1.42;;
68247;SDS011;55064;49.636;12.164;2023-04-24T14:33:24;4.80;;;1.20;;
68247;SDS011;55064;49.636;12.164;2023-04-24T14:35:49;4.80;;;1.70;;
68247;SDS011;55064;49.636;12.164;2023-04-24T14:38:14;3.70;;;1.07;;
68247;SDS011;55064;49.636;12.164;2023-04-24T14:40:40;4.68;;;1.23;;
68247;SDS011;55064;49.636;12.164;2023-04-24T14:43:08;4.47;;;1.30;;
68247;SDS011;55064;49.636;12.164;2023-04-24T14:45:36;4.45;;;1.40;;
68247;SDS011;55064;49.636;12.164;2023-04-24T14:48:03;4.28;;;1.40;;
68247;SDS011;55064;49.636;12.164;2023-04-24T14:50:32;8.87;;;1.10;;
68247;SDS011;55064;49.636;12.164;2023-04-24T14:52:58;3.75;;;1.15;;
68247;SDS011;55064;49.636;12.164;2023-04-24T14:55:24;3.73;;;1.10;;
68247;SDS011;55064;49.636;12.164;2023-04-24T14:57:52;3.63;;;1.00;;
68247;SDS011;55064;49.636;12.164;2023-04-24T15:00:18;3.30;;;1.17;;
68247;SDS011;55064;49.636;12.164;2023-04-24T15:02:45;4.15;;;1.30;;
68247;SDS011;55064;49.636;12.164;2023-04-24T15:05:10;3.40;;;1.10;;
68247;SDS011;55064;49.636;12.164;2023-04-24T15:07:36;5.07;;;1.30;;
68247;SDS011;55064;49.636;12.164;2023-04-24T15:10:06;4.88;;;1.20;;
68247;SDS011;55064;49.636;12.164;2023-04-24T15:12:33;4.10;;;1.40;;
68247;SDS011;55064;49.636;12.164;2023-04-24T15:15:02;3.22;;;1.17;;
68247;SDS011;55064;49.636;12.164;2023-04-24T15:17:29;3.55;;;1.30;;
68247;SDS011;55064;49.636;12.164;2023-04-24T15:19:55;3.92;;;1.25;;
68247;SDS011;55064;49.636;12.164;2023-04-24T15:22:21;4.40;;;1.27;;
68247;SDS011;55064;49.636;12.164;2023-04-24T15:24:49;3.80;;;1.35;;
68247;SDS011;55064;49.636;12.164;2023-04-24T15:27:17;3.50;;;1.20;;
68247;SDS011;55064;49.636;12.164;2023-04-24T15:29:42;3.87;;;1.23;;
68247;SDS011;55064;49.636;12.164;2023-04-24T15:32:08;4.77;;;1.60;;
68247;SDS011;55064;49.636;12.164;2023-04-24T15:34:33;4.00;;;1.40;;
68247;SDS011;55064;49.636;12.164;2023-04-24T15:37:01;4.70;;;1.40;;
68247;SDS011;55064;49.636;12.164;2023-04-24T15:39:27;4.25;;;1.45;;
68247;SDS011;55064;49.636;12.164;2023-04-24T15:41:52;4.10;;;1.30;;
68247;SDS011;55064;49.636;12.164;2023-04-24T15:44:24;4.78;;;1.40;;
68247;SDS011;55064;49.636;12.164;2023-04-24T15:46:51;4.80;;;1.30;;
68247;SDS011;55064;49.636;12.164;2023-04-24T15:49:22;3.60;;;1.30;;
68247;SDS011;55064;49.636;12.164;2023-04-24T15:51:49;3.20;;;0.98;;
68247;SDS011;55064;49.636;12.164;2023-04-24T15:54:16;3.70;;;1.00;;
68247;SDS011;55064;49.636;12.164;2023-04-24T15:56:42;4.57;;;1.07;;
68247;SDS011;55064;49.636;12.164;2023-04-24T15:59:09;3.72;;;1.10;;
68247;SDS011;55064;49.636;12.164;2023-04-24T16:01:36;4.90;;;1.30;;
68247;SDS011;55064;49.636;12.164;2023-04-24T16:04:01;4.20;;;1.00;;
68247;SDS011;55064;49.636;12.164;2023-04-24T16:06:27;3.38;;;0.90;;
68247;SDS011;55064;49.636;12.164;2023-04-24T16:08:52;3.80;;;1.10;;
68247;SDS011;55064;49.636;12.164;2023-04-24T16:11:18;3.60;;;1.13;;
68247;SDS011;55064;49.636;12.164;2023-04-24T16:13:43;4.43;;;1.20;;